Time,TemperatureF,DewpointF,PressureIn,WindDirection,WindDirectionDegrees,WindSpeedMPH,WindSpeedGustMPH,Humidity,HourlyPrecipIn,Conditions,Clouds,dailyrainin,SoftwareType,DateUTC
2013-07-08 00:02:00,83.1,71.8,29.89,SW,216,0.0,0.0,69,0.00,,,0.00,meteohub,2013-07-08 05:02:00,
2013-07-08 00:07:00,82.0,71.1,29.89,SW,216,0.0,0.0,68,0.00,,,0.00,meteohub,2013-07-08 05:07:00,
2013-07-08 00:12:00,81.1,71.2,29.89,SW,216,0.0,0.0,69,0.00,,,0.00,meteohub,2013-07-08 05:12:00,
2013-07-08 00:17:00,80.6,72.3,29.89,SW,216,0.0,0.0,72,0.00,,,0.00,meteohub,2013-07-08 05:17:00,
2013-07-08 00:22:00,80.2,72.0,29.89,SW,222,0.0,0.0,72,0.00,,,0.00,meteohub,2013-07-08 05:22:00,
2013-07-08 00:27:00,80.1,71.6,29.89,SW,222,0.0,0.0,71,0.00,,,0.00,meteohub,2013-07-08 05:27:00,
2013-07-08 00:32:00,79.7,70.5,29.89,NW,308,0.0,0.0,69,0.00,,,0.00,meteohub,2013-07-08 05:32:00,
2013-07-08 00:37:00,79.5,71.2,29.89,NW,309,0.0,0.0,71,0.00,,,0.00,meteohub,2013-07-08 05:37:00,
2013-07-08 00:42:00,79.5,71.1,29.89,NW,309,0.0,0.0,71,0.00,,,0.00,meteohub,2013-07-08 05:42:00,
2013-07-08 00:47:00,79.5,71.4,29.89,NW,309,0.0,0.0,72,0.00,,,0.00,meteohub,2013-07-08 05:47:00,
2013-07-08 00:52:00,79.5,70.9,29.89,SW,224,0.0,0.0,71,0.00,,,0.00,meteohub,2013-07-08 05:52:00,
2013-07-08 00:57:00,79.5,70.0,29.89,SW,224,0.0,0.0,69,0.00,,,0.00,meteohub,2013-07-08 05:57:00,
2013-07-08 01:02:00,79.5,70.2,29.89,SW,224,0.0,0.0,70,0.00,,,0.00,meteohub,2013-07-08 06:02:00,
2013-07-08 01:07:00,79.5,69.8,29.89,SW,224,0.0,0.0,69,0.00,,,0.00,meteohub,2013-07-08 06:07:00,
2013-07-08 01:12:00,79.7,69.8,29.89,SW,224,0.0,0.0,69,0.00,,,0.00,meteohub,2013-07-08 06:12:00,
2013-07-08 01:17:00,79.9,69.8,29.89,SW,224,0.0,0.0,69,0.00,,,0.00,meteohub,2013-07-08 06:17:00,
2013-07-08 01:22:00,79.9,70.2,29.89,SW,224,0.0,0.0,70,0.00,,,0.00,meteohub,2013-07-08 06:22:00,
2013-07-08 01:27:00,79.9,70.7,29.89,SW,224,0.0,0.0,71,0.00,,,0.00,meteohub,2013-07-08 06:27:00,
2013-07-08 01:32:00,79.9,70.2,29.89,SW,224,0.0,0.0,70,0.00,,,0.00,meteohub,2013-07-08 06:32:00,
2013-07-08 01:37:00,80.1,70.2,29.89,SW,224,0.0,0.0,70,0.00,,,0.00,meteohub,2013-07-08 06:37:00,
2013-07-08 01:42:00,80.2,70.0,29.89,South,186,0.0,0.0,69,0.00,,,0.00,meteohub,2013-07-08 06:42:00,
2013-07-08 01:47:00,80.2,70.0,29.89,South,187,0.0,0.0,69,0.00,,,0.00,meteohub,2013-07-08 06:47:00,
2013-07-08 01:52:00,80.4,70.3,29.89,South,187,0.0,0.0,70,0.00,,,0.00,meteohub,2013-07-08 06:52:00,
2013-07-08 01:57:00,80.2,70.2,29.89,South,187,0.0,0.0,70,0.00,,,0.00,meteohub,2013-07-08 06:57:00,
2013-07-08 02:02:00,80.2,70.2,29.89,South,186,0.0,0.0,70,0.00,,,0.00,meteohub,2013-07-08 07:02:00,
2013-07-08 02:07:00,80.1,70.2,29.89,South,187,0.0,0.0,70,0.00,,,0.00,meteohub,2013-07-08 07:07:00,
2013-07-08 02:13:00,80.1,69.6,29.89,South,187,0.0,0.0,69,0.00,,,0.00,meteohub,2013-07-08 07:13:00,
2013-07-08 02:18:00,79.9,69.3,29.89,SSW,200,0.0,0.0,68,0.00,,,0.00,meteohub,2013-07-08 07:18:00,
2013-07-08 02:23:00,79.9,68.7,29.89,SSW,211,0.0,0.0,67,0.00,,,0.00,meteohub,2013-07-08 07:23:00,
2013-07-08 02:28:00,80.1,68.2,29.89,SW,222,0.0,2.0,65,0.00,,,0.00,meteohub,2013-07-08 07:28:00,
2013-07-08 02:33:00,80.8,67.6,29.89,SSW,207,0.0,2.0,62,0.00,,,0.00,meteohub,2013-07-08 07:33:00,
2013-07-08 02:38:00,81.3,66.6,29.89,South,189,0.0,3.0,59,0.00,,,0.00,meteohub,2013-07-08 07:38:00,
2013-07-08 02:43:00,81.9,66.4,29.89,SSW,208,0.0,3.0,58,0.00,,,0.00,meteohub,2013-07-08 07:43:00,
2013-07-08 02:48:00,82.0,66.0,29.89,SSW,201,0.0,3.0,57,0.00,,,0.00,meteohub,2013-07-08 07:48:00,
2013-07-08 02:53:00,82.4,66.0,29.89,SSW,202,0.0,3.0,57,0.00,,,0.00,meteohub,2013-07-08 07:53:00,
2013-07-08 02:58:00,82.2,66.0,29.89,South,175,0.0,3.0,57,0.00,,,0.00,meteohub,2013-07-08 07:58:00,
2013-07-08 03:03:00,82.2,65.3,29.89,SSW,207,0.0,3.0,56,0.00,,,0.00,meteohub,2013-07-08 08:03:00,
2013-07-08 03:09:00,81.9,65.1,29.89,SSW,194,0.0,3.0,56,0.00,,,0.00,meteohub,2013-07-08 08:09:00,
2013-07-08 03:14:00,81.9,65.1,29.89,SSW,200,0.0,3.0,56,0.00,,,0.00,meteohub,2013-07-08 08:14:00,
2013-07-08 03:19:00,81.5,64.9,29.89,SSW,208,0.0,3.0,56,0.00,,,0.00,meteohub,2013-07-08 08:19:00,
2013-07-08 03:24:00,81.5,65.5,29.89,SW,216,2.0,3.0,57,0.00,,,0.00,meteohub,2013-07-08 08:24:00,
2013-07-08 03:30:00,81.3,64.8,29.89,South,178,0.0,3.0,56,0.00,,,0.00,meteohub,2013-07-08 08:30:00,
2013-07-08 03:35:00,81.3,65.3,29.89,SW,221,4.0,4.0,57,0.00,,,0.00,meteohub,2013-07-08 08:35:00,
2013-07-08 03:40:00,81.1,65.5,29.89,WSW,241,0.0,9.0,58,0.00,,,0.00,meteohub,2013-07-08 08:40:00,
2013-07-08 03:45:00,81.0,65.3,29.89,South,185,0.0,9.0,58,0.00,,,0.00,meteohub,2013-07-08 08:45:00,
2013-07-08 03:50:00,80.6,65.7,29.89,South,172,0.0,9.0,59,0.00,,,0.00,meteohub,2013-07-08 08:50:00,
2013-07-08 03:55:00,80.4,65.5,29.89,South,185,0.0,3.0,59,0.00,,,0.00,meteohub,2013-07-08 08:55:00,
2013-07-08 04:00:00,80.2,66.0,29.89,South,184,0.0,5.0,60,0.00,,,0.00,meteohub,2013-07-08 09:00:00,
2013-07-08 04:05:00,80.2,65.8,29.89,SSW,208,3.0,5.0,60,0.00,,,0.00,meteohub,2013-07-08 09:05:00,
2013-07-08 04:10:00,80.2,65.8,29.89,South,189,0.0,5.0,60,0.00,,,0.00,meteohub,2013-07-08 09:10:00,
2013-07-08 04:15:00,80.1,65.8,29.89,SSW,201,2.0,4.0,60,0.00,,,0.00,meteohub,2013-07-08 09:15:00,
2013-07-08 04:21:00,80.1,65.7,29.89,SSW,209,9.0,9.0,60,0.00,,,0.00,meteohub,2013-07-08 09:21:00,
2013-07-08 04:26:00,79.9,66.0,29.89,SSW,212,0.0,9.0,61,0.00,,,0.00,meteohub,2013-07-08 09:26:00,
2013-07-08 04:31:00,79.9,66.0,29.89,SSW,207,0.0,9.0,61,0.00,,,0.00,meteohub,2013-07-08 09:31:00,
2013-07-08 04:36:00,79.9,66.4,29.89,SW,231,3.0,9.0,62,0.00,,,0.00,meteohub,2013-07-08 09:36:00,
2013-07-08 04:41:00,79.7,66.4,29.89,SSW,202,0.0,4.0,62,0.00,,,0.00,meteohub,2013-07-08 09:41:00,
2013-07-08 04:46:00,79.7,66.2,29.89,SW,224,4.0,9.0,62,0.00,,,0.00,meteohub,2013-07-08 09:46:00,
2013-07-08 04:51:00,84.6,66.4,29.89,SSW,204,0.0,9.0,62,0.00,,,0.00,meteohub,2013-07-08 09:51:00,
2013-07-08 04:56:00,88.0,66.2,29.89,SSE,163,2.0,4.0,62,0.00,,,0.00,meteohub,2013-07-08 09:56:00,
2013-07-08 05:01:00,89.4,66.2,29.89,SW,214,0.0,4.0,62,0.00,,,0.00,meteohub,2013-07-08 10:01:00,
2013-07-08 05:06:00,90.0,66.2,29.89,WSW,241,2.0,3.0,62,0.00,,,0.00,meteohub,2013-07-08 10:06:00,
2013-07-08 05:11:00,90.0,66.6,29.89,WSW,237,4.0,5.0,63,0.00,,,0.00,meteohub,2013-07-08 10:11:00,
2013-07-08 05:16:00,90.0,66.6,29.89,SW,235,3.0,5.0,63,0.00,,,0.00,meteohub,2013-07-08 10:16:00,
2013-07-08 05:22:00,89.6,66.7,29.89,SSW,204,0.0,5.0,64,0.00,,,0.00,meteohub,2013-07-08 10:22:00,
2013-07-08 05:27:00,85.8,66.7,29.89,SW,230,2.0,4.0,64,0.00,,,0.00,meteohub,2013-07-08 10:27:00,
2013-07-08 05:32:00,82.4,66.6,29.89,South,183,0.0,3.0,64,0.00,,,0.00,meteohub,2013-07-08 10:32:00,
2013-07-08 05:37:00,80.8,66.6,29.89,SW,222,0.0,3.0,64,0.00,,,0.00,meteohub,2013-07-08 10:37:00,
2013-07-08 05:42:00,79.7,66.9,29.89,SSW,194,0.0,3.0,65,0.00,,,0.00,meteohub,2013-07-08 10:42:00,
2013-07-08 05:47:00,79.3,66.9,29.89,SSW,192,0.0,3.0,65,0.00,,,0.00,meteohub,2013-07-08 10:47:00,
2013-07-08 05:52:00,79.0,66.7,29.89,SSW,208,0.0,3.0,65,0.00,,,0.00,meteohub,2013-07-08 10:52:00,
2013-07-08 05:57:00,78.8,66.7,29.89,SSW,194,0.0,3.0,65,0.00,,,0.00,meteohub,2013-07-08 10:57:00,
2013-07-08 06:02:00,78.6,66.7,29.89,SSW,200,0.0,3.0,65,0.00,,,0.00,meteohub,2013-07-08 11:02:00,
2013-07-08 06:07:00,78.6,66.7,29.89,South,174,0.0,3.0,65,0.00,,,0.00,meteohub,2013-07-08 11:07:00,
2013-07-08 06:12:00,78.6,66.7,29.89,South,187,0.0,3.0,65,0.00,,,0.00,meteohub,2013-07-08 11:12:00,
2013-07-08 06:17:00,78.6,67.1,29.89,SSW,192,0.0,3.0,66,0.00,,,0.00,meteohub,2013-07-08 11:17:00,
2013-07-08 06:22:00,78.6,66.6,29.89,SSW,197,0.0,3.0,65,0.00,,,0.00,meteohub,2013-07-08 11:22:00,
2013-07-08 06:27:00,78.6,66.9,29.89,SSW,208,0.0,3.0,66,0.00,,,0.00,meteohub,2013-07-08 11:27:00,
2013-07-08 06:32:00,78.4,66.6,29.89,SW,216,0.0,3.0,65,0.00,,,0.00,meteohub,2013-07-08 11:32:00,
2013-07-08 06:37:00,78.4,66.9,29.89,SW,227,2.0,3.0,66,0.00,,,0.00,meteohub,2013-07-08 11:37:00,
2013-07-08 06:42:00,78.6,66.6,29.89,SW,234,0.0,3.0,65,0.00,,,0.00,meteohub,2013-07-08 11:42:00,
2013-07-08 06:47:00,78.6,66.6,29.89,South,183,0.0,3.0,65,0.00,,,0.00,meteohub,2013-07-08 11:47:00,
2013-07-08 06:52:00,78.6,66.7,29.89,WSW,241,3.0,3.0,65,0.00,,,0.00,meteohub,2013-07-08 11:52:00,
2013-07-08 06:57:00,78.8,66.7,29.89,SSW,213,0.0,7.0,65,0.00,,,0.00,meteohub,2013-07-08 11:57:00,
2013-07-08 07:02:00,78.4,66.7,29.89,SSW,208,0.0,7.0,65,0.00,,,0.00,meteohub,2013-07-08 12:02:00,
2013-07-08 07:07:00,78.1,66.7,29.89,SSW,209,0.0,7.0,65,0.00,,,0.00,meteohub,2013-07-08 12:07:00,
2013-07-08 07:12:00,78.1,66.9,29.89,South,187,0.0,6.0,65,0.00,,,0.00,meteohub,2013-07-08 12:12:00,
2013-07-08 07:17:00,78.1,66.4,29.89,SSW,210,2.0,6.0,64,0.00,,,0.00,meteohub,2013-07-08 12:17:00,
2013-07-08 07:22:00,78.3,66.7,29.89,SSW,213,3.0,3.0,65,0.00,,,0.00,meteohub,2013-07-08 12:22:00,
2013-07-08 07:27:00,78.4,66.9,29.89,South,182,0.0,3.0,65,0.00,,,0.00,meteohub,2013-07-08 12:27:00,
2013-07-08 07:32:00,78.6,66.9,29.89,SSW,213,0.0,4.0,65,0.00,,,0.00,meteohub,2013-07-08 12:32:00,
2013-07-08 07:37:00,78.6,66.4,29.89,SSW,212,0.0,4.0,64,0.00,,,0.00,meteohub,2013-07-08 12:37:00,
2013-07-08 07:42:00,78.8,66.4,29.92,SW,220,3.0,5.0,64,0.00,,,0.00,meteohub,2013-07-08 12:42:00,
2013-07-08 07:47:00,78.8,66.6,29.92,SW,225,2.0,5.0,64,0.00,,,0.00,meteohub,2013-07-08 12:47:00,
2013-07-08 07:52:00,79.0,67.1,29.92,SW,233,3.0,4.0,65,0.00,,,0.00,meteohub,2013-07-08 12:52:00,
2013-07-08 07:58:00,79.0,66.9,29.92,SW,223,0.0,4.0,65,0.00,,,0.00,meteohub,2013-07-08 12:58:00,
2013-07-08 08:03:00,79.0,66.9,29.92,SSW,199,3.0,4.0,65,0.00,,,0.00,meteohub,2013-07-08 13:03:00,
2013-07-08 08:08:00,79.0,67.3,29.92,SSW,200,0.0,3.0,66,0.00,,,0.00,meteohub,2013-07-08 13:08:00,
2013-07-08 08:13:00,79.0,67.3,29.92,SW,227,0.0,3.0,66,0.00,,,0.00,meteohub,2013-07-08 13:13:00,
2013-07-08 08:18:00,79.0,67.3,29.92,SSW,201,0.0,3.0,66,0.00,,,0.00,meteohub,2013-07-08 13:18:00,
2013-07-08 08:23:00,79.2,67.3,29.92,WSW,237,0.0,3.0,66,0.00,,,0.00,meteohub,2013-07-08 13:23:00,
2013-07-08 08:28:00,79.2,67.8,29.92,WSW,242,2.0,3.0,67,0.00,,,0.00,meteohub,2013-07-08 13:28:00,
2013-07-08 08:33:00,79.2,68.0,29.92,SSW,202,2.0,3.0,67,0.00,,,0.00,meteohub,2013-07-08 13:33:00,
2013-07-08 08:38:00,79.2,68.4,29.92,SSW,199,0.0,3.0,68,0.00,,,0.00,meteohub,2013-07-08 13:38:00,
2013-07-08 08:43:00,79.3,68.0,29.92,SW,214,0.0,3.0,67,0.00,,,0.00,meteohub,2013-07-08 13:43:00,
2013-07-08 08:48:00,79.3,68.5,29.92,SSW,196,0.0,3.0,68,0.00,,,0.00,meteohub,2013-07-08 13:48:00,
2013-07-08 08:54:00,79.5,68.5,29.92,South,189,0.0,3.0,68,0.00,,,0.00,meteohub,2013-07-08 13:54:00,
2013-07-08 08:59:00,79.7,68.5,29.92,WSW,247,2.0,3.0,68,0.00,,,0.00,meteohub,2013-07-08 13:59:00,
2013-07-08 09:04:00,79.7,68.9,29.95,South,190,0.0,3.0,69,0.00,,,0.00,meteohub,2013-07-08 14:04:00,
2013-07-08 09:09:00,79.7,68.9,29.95,South,191,0.0,3.0,69,0.00,,,0.00,meteohub,2013-07-08 14:09:00,
2013-07-08 09:14:00,79.5,68.9,29.95,SSW,194,0.0,4.0,69,0.00,,,0.00,meteohub,2013-07-08 14:14:00,
2013-07-08 09:19:00,81.3,68.9,29.92,South,185,0.0,4.0,69,0.00,,,0.00,meteohub,2013-07-08 14:19:00,
2013-07-08 09:24:00,86.0,68.7,29.92,SSW,206,0.0,3.0,68,0.00,,,0.00,meteohub,2013-07-08 14:24:00,
2013-07-08 09:29:00,87.6,68.7,29.92,South,191,0.0,3.0,68,0.00,,,0.00,meteohub,2013-07-08 14:29:00,
2013-07-08 09:34:00,86.4,68.9,29.95,SW,223,0.0,3.0,68,0.00,,,0.00,meteohub,2013-07-08 14:34:00,
2013-07-08 09:39:00,87.1,68.5,29.95,WSW,237,0.0,3.0,67,0.00,,,0.00,meteohub,2013-07-08 14:39:00,
2013-07-08 09:45:00,87.1,69.1,29.95,SW,223,0.0,3.0,68,0.00,,,0.00,meteohub,2013-07-08 14:45:00,
2013-07-08 09:50:00,84.9,68.7,29.95,WSW,242,0.0,3.0,67,0.00,,,0.00,meteohub,2013-07-08 14:50:00,
2013-07-08 09:55:00,83.3,68.9,29.95,West,259,0.0,3.0,67,0.00,,,0.00,meteohub,2013-07-08 14:55:00,
2013-07-08 10:00:00,82.8,70.2,29.95,West,259,0.0,2.0,69,0.00,,,0.00,meteohub,2013-07-08 15:00:00,
2013-07-08 10:05:00,82.8,70.0,29.92,SW,225,0.0,2.0,68,0.00,,,0.00,meteohub,2013-07-08 15:05:00,
2013-07-08 10:10:00,82.8,70.3,29.92,WSW,246,0.0,0.0,68,0.00,,,0.00,meteohub,2013-07-08 15:10:00,
2013-07-08 10:15:00,82.6,69.6,29.92,SW,222,0.0,2.0,67,0.00,,,0.00,meteohub,2013-07-08 15:15:00,
2013-07-08 10:20:00,82.4,69.3,29.95,WSW,238,0.0,4.0,66,0.00,,,0.00,meteohub,2013-07-08 15:20:00,
2013-07-08 10:25:00,82.0,69.1,29.95,SW,214,2.0,4.0,66,0.00,,,0.00,meteohub,2013-07-08 15:25:00,
2013-07-08 10:30:00,81.7,68.9,29.95,West,263,0.0,4.0,66,0.00,,,0.00,meteohub,2013-07-08 15:30:00,
2013-07-08 10:35:00,81.3,69.3,29.95,SSW,203,0.0,3.0,67,0.00,,,0.00,meteohub,2013-07-08 15:35:00,
2013-07-08 10:41:00,81.1,68.7,29.95,WSW,256,0.0,3.0,66,0.00,,,0.00,meteohub,2013-07-08 15:41:00,
2013-07-08 10:46:00,81.0,68.7,29.95,SW,231,0.0,3.0,66,0.00,,,0.00,meteohub,2013-07-08 15:46:00,
2013-07-08 10:51:00,81.1,69.3,29.95,SW,228,0.0,2.0,67,0.00,,,0.00,meteohub,2013-07-08 15:51:00,
2013-07-08 10:56:00,81.1,69.3,29.95,WSW,241,0.0,0.0,67,0.00,,,0.00,meteohub,2013-07-08 15:56:00,
2013-07-08 11:01:00,81.5,70.0,29.95,West,267,0.0,2.0,68,0.00,,,0.00,meteohub,2013-07-08 16:01:00,
2013-07-08 11:06:00,81.9,69.4,29.95,SW,228,0.0,2.0,67,0.00,,,0.00,meteohub,2013-07-08 16:06:00,
2013-07-08 11:11:00,82.0,70.2,29.95,SW,220,0.0,2.0,68,0.00,,,0.00,meteohub,2013-07-08 16:11:00,
2013-07-08 11:16:00,82.2,69.6,29.95,WSW,247,0.0,0.0,67,0.00,,,0.00,meteohub,2013-07-08 16:16:00,
2013-07-08 11:21:00,82.4,69.8,29.95,SSW,206,0.0,2.0,67,0.00,,,0.00,meteohub,2013-07-08 16:21:00,
2013-07-08 11:26:00,82.6,69.8,29.95,SW,217,0.0,2.0,67,0.00,,,0.00,meteohub,2013-07-08 16:26:00,
2013-07-08 11:32:00,82.6,70.0,29.95,SSW,200,0.0,3.0,67,0.00,,,0.00,meteohub,2013-07-08 16:32:00,
2013-07-08 11:37:00,82.8,70.2,29.95,SW,230,0.0,3.0,67,0.00,,,0.00,meteohub,2013-07-08 16:37:00,
2013-07-08 11:42:00,84.0,71.1,29.95,SSW,198,0.0,3.0,67,0.00,,,0.00,meteohub,2013-07-08 16:42:00,
2013-07-08 11:47:00,85.6,70.0,29.95,WSW,237,0.0,3.0,63,0.00,,,0.00,meteohub,2013-07-08 16:47:00,
2013-07-08 11:52:00,86.4,70.0,29.95,SSW,206,0.0,3.0,63,0.00,,,0.00,meteohub,2013-07-08 16:52:00,
2013-07-08 11:57:00,86.9,70.7,29.95,SSW,208,0.0,3.0,63,0.00,,,0.00,meteohub,2013-07-08 16:57:00,
2013-07-08 12:02:00,87.6,70.2,29.95,SSW,213,0.0,3.0,61,0.00,,,0.00,meteohub,2013-07-08 17:02:00,
2013-07-08 12:07:00,88.3,70.7,29.95,South,182,3.0,3.0,61,0.00,,,0.00,meteohub,2013-07-08 17:07:00,
2013-07-08 12:12:00,89.2,70.9,29.95,SSW,200,0.0,3.0,60,0.00,,,0.00,meteohub,2013-07-08 17:12:00,
2013-07-08 12:17:00,89.6,71.6,29.95,South,173,0.0,3.0,60,0.00,,,0.00,meteohub,2013-07-08 17:17:00,
2013-07-08 12:22:00,90.5,71.1,29.95,South,173,0.0,3.0,58,0.00,,,0.00,meteohub,2013-07-08 17:22:00,
2013-07-08 12:27:00,91.4,70.2,29.95,SSW,207,0.0,2.0,55,0.00,,,0.00,meteohub,2013-07-08 17:27:00,
2013-07-08 12:32:00,91.9,71.6,29.95,WSW,250,0.0,2.0,57,0.00,,,0.00,meteohub,2013-07-08 17:32:00,
2013-07-08 12:37:00,92.7,71.1,29.95,SE,146,0.0,2.0,55,0.00,,,0.00,meteohub,2013-07-08 17:37:00,
2013-07-08 12:42:00,92.3,68.4,29.95,SW,233,2.0,2.0,50,0.00,,,0.00,meteohub,2013-07-08 17:42:00,
2013-07-08 12:47:00,91.9,66.7,29.95,SW,228,2.0,3.0,48,0.00,,,0.00,meteohub,2013-07-08 17:47:00,
2013-07-08 12:52:00,91.8,67.8,29.92,SW,222,0.0,3.0,49,0.00,,,0.00,meteohub,2013-07-08 17:52:00,
2013-07-08 12:57:00,92.3,67.5,29.92,SW,232,0.0,3.0,48,0.00,,,0.00,meteohub,2013-07-08 17:57:00,
2013-07-08 13:02:00,93.0,66.9,29.92,SW,222,3.0,3.0,47,0.00,,,0.00,meteohub,2013-07-08 18:02:00,
2013-07-08 13:07:00,92.8,67.6,29.92,WSW,245,2.0,3.0,48,0.00,,,0.00,meteohub,2013-07-08 18:07:00,
2013-07-08 13:12:00,93.0,68.5,29.92,SSW,207,0.0,3.0,49,0.00,,,0.00,meteohub,2013-07-08 18:12:00,
2013-07-08 13:17:00,92.8,68.4,29.92,SSW,207,0.0,4.0,49,0.00,,,0.00,meteohub,2013-07-08 18:17:00,
2013-07-08 13:23:00,91.8,67.8,29.92,SSW,211,0.0,4.0,49,0.00,,,0.00,meteohub,2013-07-08 18:23:00,
2013-07-08 13:28:00,91.2,67.8,29.92,SW,214,0.0,4.0,49,0.00,,,0.00,meteohub,2013-07-08 18:28:00,
2013-07-08 13:34:00,91.0,68.5,29.92,SW,214,0.0,3.0,50,0.00,,,0.00,meteohub,2013-07-08 18:34:00,
2013-07-08 13:41:00,90.3,67.5,29.92,SW,217,2.0,3.0,49,0.00,,,0.00,meteohub,2013-07-08 18:41:00,
2013-07-08 13:46:00,89.8,69.6,29.92,SSW,195,2.0,3.0,53,0.00,,,0.00,meteohub,2013-07-08 18:46:00,
2013-07-08 13:52:00,89.2,68.7,29.92,South,176,0.0,3.0,52,0.00,,,0.00,meteohub,2013-07-08 18:52:00,
2013-07-08 13:58:00,91.2,68.0,29.92,WSW,244,2.0,3.0,51,0.00,,,0.00,meteohub,2013-07-08 18:58:00,
2013-07-08 14:03:00,95.5,68.7,29.92,SW,229,0.0,3.0,52,0.00,,,0.00,meteohub,2013-07-08 19:03:00,
2013-07-08 14:08:00,96.6,69.1,29.92,SW,232,2.0,3.0,53,0.00,,,0.00,meteohub,2013-07-08 19:08:00,
2013-07-08 14:14:00,97.9,68.9,29.92,SSW,213,3.0,3.0,53,0.00,,,0.00,meteohub,2013-07-08 19:14:00,
2013-07-08 14:19:00,98.4,68.7,29.92,SSW,195,0.0,2.0,53,0.00,,,0.00,meteohub,2013-07-08 19:19:00,
2013-07-08 14:24:00,99.1,68.0,29.92,SSW,205,0.0,3.0,52,0.00,,,0.00,meteohub,2013-07-08 19:24:00,
2013-07-08 14:30:00,99.5,68.7,29.92,SSW,206,0.0,3.0,53,0.00,,,0.00,meteohub,2013-07-08 19:30:00,
2013-07-08 14:35:00,99.3,68.2,29.92,SW,218,0.0,3.0,52,0.00,,,0.00,meteohub,2013-07-08 19:35:00,
2013-07-08 14:40:00,99.3,69.1,29.92,South,187,0.0,2.0,54,0.00,,,0.00,meteohub,2013-07-08 19:40:00,
2013-07-08 14:46:00,98.8,69.6,29.92,SW,229,2.0,3.0,55,0.00,,,0.00,meteohub,2013-07-08 19:46:00,
2013-07-08 14:51:00,98.1,70.7,29.92,South,172,0.0,3.0,57,0.00,,,0.00,meteohub,2013-07-08 19:51:00,
2013-07-08 14:57:00,92.3,71.1,29.92,South,187,0.0,3.0,58,0.00,,,0.00,meteohub,2013-07-08 19:57:00,
2013-07-08 15:02:00,89.4,71.6,29.92,SSW,196,0.0,3.0,59,0.00,,,0.00,meteohub,2013-07-08 20:02:00,
2013-07-08 15:07:00,88.5,71.2,29.92,South,182,0.0,0.0,58,0.00,,,0.00,meteohub,2013-07-08 20:07:00,
2013-07-08 15:12:00,88.2,70.0,29.92,South,185,0.0,0.0,56,0.00,,,0.00,meteohub,2013-07-08 20:12:00,
2013-07-08 15:17:00,87.8,70.7,29.92,SE,140,0.0,0.0,57,0.00,,,0.00,meteohub,2013-07-08 20:17:00,
2013-07-08 15:23:00,87.8,70.7,29.92,SSW,197,0.0,0.0,57,0.00,,,0.00,meteohub,2013-07-08 20:23:00,
2013-07-08 15:28:00,87.8,70.3,29.92,South,177,0.0,0.0,56,0.00,,,0.00,meteohub,2013-07-08 20:28:00,
2013-07-08 15:34:00,87.8,70.9,29.92,SSE,153,0.0,0.0,57,0.00,,,0.00,meteohub,2013-07-08 20:34:00,
2013-07-08 15:39:00,88.0,70.0,29.92,SSE,157,0.0,0.0,55,0.00,,,0.00,meteohub,2013-07-08 20:39:00,
2013-07-08 15:44:00,88.0,70.2,29.92,South,191,0.0,0.0,55,0.00,,,0.00,meteohub,2013-07-08 20:44:00,
2013-07-08 15:50:00,88.2,70.0,29.92,South,179,0.0,2.0,55,0.00,,,0.00,meteohub,2013-07-08 20:50:00,
2013-07-08 15:56:00,88.2,70.0,29.92,South,176,0.0,2.0,55,0.00,,,0.00,meteohub,2013-07-08 20:56:00,
2013-07-08 16:01:00,88.0,70.3,29.92,SSE,163,0.0,3.0,56,0.00,,,0.00,meteohub,2013-07-08 21:01:00,
2013-07-08 16:06:00,87.6,71.4,29.92,SSE,167,0.0,3.0,58,0.00,,,0.00,meteohub,2013-07-08 21:06:00,
2013-07-08 16:12:00,87.3,71.2,29.92,SSE,148,0.0,3.0,58,0.00,,,0.00,meteohub,2013-07-08 21:12:00,
2013-07-08 16:17:00,90.7,71.6,29.92,SSE,167,0.0,0.0,59,0.00,,,0.00,meteohub,2013-07-08 21:17:00,
2013-07-08 16:22:00,94.8,71.4,29.92,South,187,0.0,0.0,59,0.00,,,0.00,meteohub,2013-07-08 21:22:00,
2013-07-08 16:28:00,96.3,71.4,29.92,SSE,167,0.0,0.0,59,0.00,,,0.00,meteohub,2013-07-08 21:28:00,
2013-07-08 16:34:00,97.0,72.0,29.92,South,175,0.0,0.0,60,0.00,,,0.00,meteohub,2013-07-08 21:34:00,
2013-07-08 16:39:00,97.2,73.0,29.92,SSE,164,0.0,0.0,62,0.00,,,0.00,meteohub,2013-07-08 21:39:00,
2013-07-08 16:44:00,97.5,72.1,29.92,South,173,0.0,0.0,60,0.00,,,0.00,meteohub,2013-07-08 21:44:00,
2013-07-08 16:51:00,97.5,72.1,29.92,SSE,152,0.0,0.0,60,0.00,,,0.00,meteohub,2013-07-08 21:51:00,
2013-07-08 16:57:00,95.0,72.9,29.92,SSE,150,0.0,0.0,61,0.00,,,0.00,meteohub,2013-07-08 21:57:00,
2013-07-08 17:04:00,90.5,72.3,29.92,SSE,154,0.0,0.0,60,0.00,,,0.00,meteohub,2013-07-08 22:04:00,
2013-07-08 17:09:00,88.9,72.5,29.92,SSE,149,0.0,0.0,60,0.00,,,0.00,meteohub,2013-07-08 22:09:00,
2013-07-08 17:15:00,88.3,72.5,29.92,SSE,156,0.0,0.0,60,0.00,,,0.00,meteohub,2013-07-08 22:15:00,
2013-07-08 17:21:00,88.2,72.7,29.92,SSE,155,0.0,0.0,60,0.00,,,0.00,meteohub,2013-07-08 22:21:00,
2013-07-08 17:26:00,88.0,72.1,29.92,SSE,152,0.0,0.0,59,0.00,,,0.00,meteohub,2013-07-08 22:26:00,
2013-07-08 17:31:00,88.7,71.6,29.92,SE,135,0.0,0.0,58,0.00,,,0.00,meteohub,2013-07-08 22:31:00,
2013-07-08 17:37:00,92.8,71.6,29.89,SSE,152,0.0,0.0,58,0.00,,,0.00,meteohub,2013-07-08 22:37:00,
2013-07-08 17:42:00,96.1,72.1,29.89,SSE,151,0.0,0.0,59,0.00,,,0.00,meteohub,2013-07-08 22:42:00,
2013-07-08 17:47:00,97.7,72.3,29.89,SSE,147,0.0,0.0,59,0.00,,,0.00,meteohub,2013-07-08 22:47:00,
2013-07-08 17:52:00,97.9,72.9,29.89,SE,125,0.0,0.0,60,0.00,,,0.00,meteohub,2013-07-08 22:52:00,
2013-07-08 17:57:00,97.7,72.3,29.89,SE,134,0.0,0.0,59,0.00,,,0.00,meteohub,2013-07-08 22:57:00,
2013-07-08 18:02:00,97.7,72.5,29.89,SE,146,0.0,0.0,59,0.00,,,0.00,meteohub,2013-07-08 23:02:00,
2013-07-08 18:07:00,97.7,72.3,29.89,SSE,159,0.0,0.0,59,0.00,,,0.00,meteohub,2013-07-08 23:07:00,
2013-07-08 18:12:00,97.7,72.3,29.89,ESE,104,0.0,2.0,59,0.00,,,0.00,meteohub,2013-07-08 23:12:00,
2013-07-08 18:17:00,97.9,73.0,29.89,SE,145,0.0,2.0,60,0.00,,,0.00,meteohub,2013-07-08 23:17:00,
2013-07-08 18:23:00,97.9,72.9,29.89,South,177,0.0,0.0,60,0.00,,,0.00,meteohub,2013-07-08 23:23:00,
2013-07-08 18:28:00,95.9,72.7,29.89,SSE,157,0.0,0.0,60,0.00,,,0.00,meteohub,2013-07-08 23:28:00,
2013-07-08 18:33:00,91.9,73.6,29.89,ESE,113,0.0,0.0,61,0.00,,,0.00,meteohub,2013-07-08 23:33:00,
2013-07-08 18:39:00,90.3,73.8,29.89,SE,128,0.0,0.0,61,0.00,,,0.00,meteohub,2013-07-08 23:39:00,
2013-07-08 18:44:00,89.8,74.1,29.89,SSE,151,0.0,0.0,62,0.00,,,0.00,meteohub,2013-07-08 23:44:00,
2013-07-08 18:49:00,89.6,74.1,29.89,ESE,108,0.0,0.0,62,0.00,,,0.00,meteohub,2013-07-08 23:49:00,
2013-07-08 18:54:00,89.4,73.9,29.89,East,89,0.0,2.0,61,0.00,,,0.00,meteohub,2013-07-08 23:54:00,
2013-07-08 19:00:00,89.2,74.3,29.89,East,91,0.0,2.0,62,0.00,,,0.00,meteohub,2013-07-09 00:00:00,
2013-07-08 19:05:00,89.2,74.3,29.89,SE,145,0.0,3.0,62,0.00,,,0.00,meteohub,2013-07-09 00:05:00,
2013-07-08 19:10:00,88.9,74.1,29.89,SE,130,0.0,3.0,62,0.00,,,0.00,meteohub,2013-07-09 00:10:00,
2013-07-08 19:16:00,88.9,73.8,29.89,ESE,108,0.0,3.0,61,0.00,,,0.00,meteohub,2013-07-09 00:16:00,
2013-07-08 19:22:00,88.7,73.4,29.89,ESE,113,0.0,0.0,61,0.00,,,0.00,meteohub,2013-07-09 00:22:00,
2013-07-08 19:27:00,88.3,73.4,29.89,ESE,106,0.0,0.0,61,0.00,,,0.00,meteohub,2013-07-09 00:27:00,
2013-07-08 19:32:00,88.3,72.9,29.89,East,89,0.0,0.0,60,0.00,,,0.00,meteohub,2013-07-09 00:32:00,
2013-07-08 19:37:00,88.2,72.7,29.89,ENE,57,0.0,0.0,60,0.00,,,0.00,meteohub,2013-07-09 00:37:00,
2013-07-08 19:42:00,88.0,73.0,-100.00,SSE,153,0.0,0.0,61,0.00,,,0.00,meteohub,2013-07-09 00:42:00,
2013-07-08 19:47:00,87.8,72.3,29.89,SSE,149,0.0,0.0,60,0.00,,,0.00,meteohub,2013-07-09 00:47:00,
2013-07-08 19:52:00,87.6,72.7,29.89,SE,135,0.0,0.0,61,0.00,,,0.00,meteohub,2013-07-09 00:52:00,
2013-07-08 19:57:00,87.4,72.7,29.89,SE,137,0.0,0.0,61,0.00,,,0.00,meteohub,2013-07-09 00:57:00,
2013-07-08 20:02:00,87.3,72.5,29.89,SSE,153,0.0,0.0,61,0.00,,,0.00,meteohub,2013-07-09 01:02:00,
2013-07-08 20:09:00,87.1,72.3,29.86,ESE,120,0.0,0.0,61,0.00,,,0.00,meteohub,2013-07-09 01:09:00,
2013-07-08 20:15:00,87.1,72.7,29.86,SE,136,0.0,2.0,62,0.00,,,0.00,meteohub,2013-07-09 01:15:00,
2013-07-08 20:21:00,86.7,72.5,29.86,SSE,158,0.0,2.0,62,0.00,,,0.00,meteohub,2013-07-09 01:21:00,
2013-07-08 20:26:00,86.5,72.9,29.86,ESE,102,0.0,0.0,63,0.00,,,0.00,meteohub,2013-07-09 01:26:00,
2013-07-08 20:32:00,86.5,72.9,29.86,SE,144,0.0,2.0,63,0.00,,,0.00,meteohub,2013-07-09 01:32:00,
2013-07-08 20:37:00,86.4,73.0,29.86,SSE,157,0.0,4.0,64,0.00,,,0.00,meteohub,2013-07-09 01:37:00,
2013-07-08 20:42:00,88.2,73.4,29.86,SSE,153,0.0,4.0,65,0.00,,,0.00,meteohub,2013-07-09 01:42:00,
2013-07-08 20:48:00,92.1,73.2,29.86,SSE,154,0.0,4.0,65,0.00,,,0.00,meteohub,2013-07-09 01:48:00,
2013-07-08 20:53:00,93.6,73.4,29.86,SSE,151,0.0,4.0,66,0.00,,,0.00,meteohub,2013-07-09 01:53:00,
2013-07-08 20:59:00,93.9,73.2,29.86,East,82,0.0,4.0,66,0.00,,,0.00,meteohub,2013-07-09 01:59:00,
2013-07-08 21:06:00,94.3,73.6,29.86,ESE,120,0.0,0.0,67,0.00,,,0.00,meteohub,2013-07-09 02:06:00,
2013-07-08 21:11:00,93.9,73.6,-100.00,SE,145,0.0,0.0,67,0.00,,,0.00,meteohub,2013-07-09 02:11:00,
2013-07-08 21:16:00,92.8,73.9,29.86,SSE,152,0.0,2.0,68,0.00,,,0.00,meteohub,2013-07-09 02:16:00,
2013-07-08 21:21:00,89.2,73.8,29.86,South,170,0.0,4.0,68,0.00,,,0.00,meteohub,2013-07-09 02:21:00,
2013-07-08 21:27:00,87.1,73.8,29.86,SSE,151,0.0,4.0,68,0.00,,,0.00,meteohub,2013-07-09 02:27:00,
2013-07-08 21:32:00,86.0,73.8,29.86,SE,138,0.0,0.0,68,0.00,,,0.00,meteohub,2013-07-09 02:32:00,
2013-07-08 21:37:00,85.5,73.8,29.89,SSE,149,0.0,3.0,68,0.00,,,0.00,meteohub,2013-07-09 02:37:00,
2013-07-08 21:43:00,85.1,73.6,29.89,SSE,156,0.0,3.0,68,0.00,,,0.00,meteohub,2013-07-09 02:43:00,
2013-07-08 21:48:00,85.1,73.8,29.89,SE,145,0.0,2.0,68,0.00,,,0.00,meteohub,2013-07-09 02:48:00,
2013-07-08 21:53:00,85.1,73.8,-100.00,SE,136,0.0,2.0,68,0.00,,,0.00,meteohub,2013-07-09 02:53:00,
2013-07-08 22:00:00,85.1,73.2,29.89,SSE,166,0.0,0.0,67,0.00,,,0.00,meteohub,2013-07-09 03:00:00,
2013-07-08 22:06:00,85.3,73.0,29.89,SSE,158,0.0,0.0,66,0.00,,,0.00,meteohub,2013-07-09 03:06:00,
2013-07-08 22:12:00,85.5,73.2,29.89,SSE,162,0.0,0.0,66,0.00,,,0.00,meteohub,2013-07-09 03:12:00,
2013-07-08 22:17:00,85.5,73.2,29.89,SSE,157,0.0,0.0,66,0.00,,,0.00,meteohub,2013-07-09 03:17:00,
2013-07-08 22:22:00,85.5,72.7,29.89,SSE,166,0.0,0.0,65,0.00,,,0.00,meteohub,2013-07-09 03:22:00,
2013-07-08 22:27:00,85.3,73.0,29.89,SSE,158,0.0,0.0,66,0.00,,,0.00,meteohub,2013-07-09 03:27:00,
2013-07-08 22:32:00,85.1,72.9,29.89,SE,144,0.0,4.0,66,0.00,,,0.00,meteohub,2013-07-09 03:32:00,
2013-07-08 22:37:00,85.1,72.3,29.89,SSE,155,0.0,4.0,65,0.00,,,0.00,meteohub,2013-07-09 03:37:00,
2013-07-08 22:42:00,84.9,72.3,29.89,SSE,148,0.0,4.0,65,0.00,,,0.00,meteohub,2013-07-09 03:42:00,
2013-07-08 22:47:00,85.1,72.1,29.89,SSE,165,0.0,0.0,64,0.00,,,0.00,meteohub,2013-07-09 03:47:00,
2013-07-08 22:53:00,85.8,71.6,29.86,South,181,0.0,0.0,63,0.00,,,0.00,meteohub,2013-07-09 03:53:00,
2013-07-08 22:58:00,90.5,71.6,29.86,SSW,193,0.0,0.0,63,0.00,,,0.00,meteohub,2013-07-09 03:58:00,
2013-07-08 23:01:00,92.1,71.6,29.86,South,179,0.0,0.0,63,0.00,,,0.00,meteohub,2013-07-09 04:01:00,
2013-07-08 23:02:00,92.3,71.6,29.86,SSW,198,0.0,0.0,63,0.00,,,0.00,meteohub,2013-07-09 04:02:00,
2013-07-08 23:05:00,93.2,71.4,29.86,South,169,0.0,0.0,63,0.00,,,0.00,meteohub,2013-07-09 04:05:00,
2013-07-08 23:10:00,93.9,70.9,29.86,SSE,148,0.0,0.0,62,0.00,,,0.00,meteohub,2013-07-09 04:10:00,
2013-07-08 23:12:00,93.9,70.9,-100.00,South,177,0.0,0.0,62,0.00,,,0.00,meteohub,2013-07-09 04:12:00,
2013-07-08 23:17:00,93.7,70.9,-100.00,SW,215,0.0,0.0,62,0.00,,,0.00,meteohub,2013-07-09 04:17:00,
2013-07-08 23:22:00,93.7,70.5,-100.00,SSE,148,0.0,0.0,61,0.00,,,0.00,meteohub,2013-07-09 04:22:00,
2013-07-08 23:27:00,93.4,70.0,29.86,South,170,0.0,0.0,60,0.00,,,0.00,meteohub,2013-07-09 04:27:00,
2013-07-08 23:32:00,93.2,70.3,29.86,South,180,0.0,8.0,61,0.00,,,0.00,meteohub,2013-07-09 04:32:00,
2013-07-08 23:37:00,92.8,70.0,-100.00,South,181,0.0,8.0,61,0.00,,,0.00,meteohub,2013-07-09 04:37:00,
2013-07-08 23:42:00,92.8,70.2,29.86,SSW,194,0.0,8.0,62,0.00,,,0.00,meteohub,2013-07-09 04:42:00,
2013-07-08 23:48:00,92.3,70.0,29.86,South,189,0.0,0.0,62,0.00,,,0.00,meteohub,2013-07-09 04:48:00,
2013-07-08 23:53:00,92.1,70.0,-100.00,South,189,0.0,0.0,63,0.00,,,0.00,meteohub,2013-07-09 04:53:00,
2013-07-08 23:58:00,91.8,70.0,29.86,SSE,156,0.0,0.0,63,0.00,,,0.00,meteohub,2013-07-09 04:58:00,